createdAt,value
2023-03-26T00:18:13.493Z,100.00
2023-03-26T00:38:15.039Z,100.00
2023-03-26T00:58:16.655Z,100.00
2023-03-26T01:18:36.502Z,99.00
2023-03-26T01:38:56.495Z,94.98
2023-03-26T01:59:16.841Z,91.18
2023-03-26T02:19:36.993Z,88.29
2023-03-26T02:39:57.551Z,89.99
2023-03-26T03:00:17.715Z,85.39
2023-03-26T03:20:22.374Z,86.97
2023-03-26T03:40:23.970Z,85.89
2023-03-26T04:00:27.159Z,88.23
2023-03-26T04:20:48.691Z,91.80
2023-03-26T04:41:03.988Z,90.79
2023-03-26T05:01:17.949Z,91.08
2023-03-26T05:21:21.499Z,83.41
2023-03-26T05:41:23.477Z,68.93
2023-03-26T06:01:25.489Z,68.96
2023-03-26T06:21:46.142Z,72.29
2023-03-26T06:42:10.257Z,70.23
2023-03-26T07:02:38.348Z,74.53
2023-03-26T07:22:58.482Z,71.67
2023-03-26T07:43:20.531Z,63.22
2023-03-26T08:03:42.630Z,62.54
2023-03-26T08:24:02.574Z,62.22
2023-03-26T08:44:04.248Z,58.88
2023-03-26T09:04:05.857Z,55.30
2023-03-26T09:24:07.436Z,50.85
2023-03-26T09:44:09.169Z,49.63
2023-03-26T10:04:10.799Z,47.79
2023-03-26T10:24:15.127Z,44.50
2023-03-26T10:48:45.972Z,41.30
2023-03-26T11:17:04.484Z,36.94
2023-03-26T11:37:06.469Z,37.64
2023-03-26T11:57:08.109Z,35.04
2023-03-26T12:17:09.717Z,35.17
2023-03-26T12:37:11.807Z,34.17
2023-03-26T12:57:13.613Z,32.79
2023-03-26T13:17:15.468Z,36.55
2023-03-26T13:37:19.110Z,41.00
2023-03-26T13:57:38.955Z,43.49
2023-03-26T14:17:59.022Z,46.63
2023-03-26T14:38:19.177Z,50.68
2023-03-26T14:58:39.212Z,53.93
2023-03-26T15:18:59.072Z,57.18
2023-03-26T15:39:19.384Z,58.99
2023-03-26T15:59:20.960Z,60.75
2023-03-26T16:19:25.583Z,61.62
2023-03-26T16:39:27.084Z,63.26
2023-03-26T18:22:25.852Z,69.95
2023-03-26T18:42:33.345Z,66.44
2023-03-26T19:02:35.548Z,66.25
2023-03-26T19:22:38.427Z,69.15
2023-03-26T19:42:43.954Z,70.88
2023-03-26T20:03:02.027Z,73.07
2023-03-26T20:23:03.744Z,77.27
2023-03-26T20:43:05.223Z,88.44
2023-03-26T21:03:06.913Z,90.60
2023-03-26T21:23:10.983Z,95.65
2023-03-26T21:43:12.629Z,98.17
2023-03-26T22:03:14.190Z,100.00
2023-03-26T22:23:15.821Z,100.00
2023-03-26T22:43:17.303Z,100.00
2023-03-26T23:03:37.510Z,100.00
2023-03-26T23:23:57.257Z,100.00
2023-03-26T23:44:17.784Z,100.00
